sensor_id;sensor_type;location;lat;lon;timestamp;temperature;humidity
9329;DHT22;4703;48.748;19.142;2023-08-21T00:01:41;22.40;99.90
9329;DHT22;4703;48.748;19.142;2023-08-21T00:04:08;22.40;99.90
9329;DHT22;4703;48.748;19.142;2023-08-21T00:06:36;22.40;99.90
9329;DHT22;4703;48.748;19.142;2023-08-21T00:09:03;22.30;99.90
9329;DHT22;4703;48.748;19.142;2023-08-21T00:11:30;22.30;99.90
9329;DHT22;4703;48.748;19.142;2023-08-21T00:13:57;22.30;99.90
9329;DHT22;4703;48.748;19.142;2023-08-21T00:16:24;22.30;99.90
9329;DHT22;4703;48.748;19.142;2023-08-21T00:18:53;21.20;99.90
9329;DHT22;4703;48.748;19.142;2023-08-21T00:21:20;22.20;99.90
9329;DHT22;4703;48.748;19.142;2023-08-21T00:23:47;22.10;99.90
9329;DHT22;4703;48.748;19.142;2023-08-21T00:26:14;22.10;99.90
9329;DHT22;4703;48.748;19.142;2023-08-21T00:28:41;22.10;99.90
9329;DHT22;4703;48.748;19.142;2023-08-21T00:31:08;22.00;99.90
9329;DHT22;4703;48.748;19.142;2023-08-21T00:33:35;22.00;99.90
9329;DHT22;4703;48.748;19.142;2023-08-21T00:36:03;22.00;99.90
9329;DHT22;4703;48.748;19.142;2023-08-21T00:38:31;22.00;99.90
9329;DHT22;4703;48.748;19.142;2023-08-21T00:40:58;21.90;99.90
9329;DHT22;4703;48.748;19.142;2023-08-21T00:43:24;21.80;99.90
9329;DHT22;4703;48.748;19.142;2023-08-21T00:45:52;21.80;99.90
9329;DHT22;4703;48.748;19.142;2023-08-21T00:48:19;21.80;99.90
9329;DHT22;4703;48.748;19.142;2023-08-21T00:50:47;21.70;99.90
9329;DHT22;4703;48.748;19.142;2023-08-21T00:53:14;21.70;99.90
9329;DHT22;4703;48.748;19.142;2023-08-21T00:55:41;21.70;99.90
9329;DHT22;4703;48.748;19.142;2023-08-21T00:58:12;21.70;99.90
9329;DHT22;4703;48.748;19.142;2023-08-21T01:00:41;21.60;99.90
9329;DHT22;4703;48.748;19.142;2023-08-21T01:03:08;21.70;99.90
9329;DHT22;4703;48.748;19.142;2023-08-21T01:05:36;21.60;99.90
9329;DHT22;4703;48.748;19.142;2023-08-21T01:08:06;21.60;99.90
9329;DHT22;4703;48.748;19.142;2023-08-21T01:11:14;21.60;99.90
9329;DHT22;4703;48.748;19.142;2023-08-21T01:16:33;21.40;99.90
9329;DHT22;4703;48.748;19.142;2023-08-21T01:19:01;21.40;99.90
9329;DHT22;4703;48.748;19.142;2023-08-21T01:21:30;21.40;99.90
9329;DHT22;4703;48.748;19.142;2023-08-21T01:23:57;21.20;99.90
9329;DHT22;4703;48.748;19.142;2023-08-21T01:26:24;21.30;99.90
9329;DHT22;4703;48.748;19.142;2023-08-21T01:28:51;21.20;99.90
9329;DHT22;4703;48.748;19.142;2023-08-21T01:31:23;21.20;99.90
9329;DHT22;4703;48.748;19.142;2023-08-21T01:33:55;21.20;99.90
9329;DHT22;4703;48.748;19.142;2023-08-21T01:36:25;21.20;99.90
9329;DHT22;4703;48.748;19.142;2023-08-21T01:38:53;21.10;99.90
9329;DHT22;4703;48.748;19.142;2023-08-21T01:41:26;21.10;99.90
9329;DHT22;4703;48.748;19.142;2023-08-21T01:43:53;21.10;99.90
9329;DHT22;4703;48.748;19.142;2023-08-21T01:46:21;21.00;99.90
9329;DHT22;4703;48.748;19.142;2023-08-21T01:48:48;21.00;99.90
9329;DHT22;4703;48.748;19.142;2023-08-21T01:51:15;21.00;99.90
9329;DHT22;4703;48.748;19.142;2023-08-21T01:53:42;20.90;99.90
9329;DHT22;4703;48.748;19.142;2023-08-21T01:56:09;20.90;99.90
9329;DHT22;4703;48.748;19.142;2023-08-21T01:58:36;20.90;99.90
9329;DHT22;4703;48.748;19.142;2023-08-21T02:01:03;20.80;99.90
9329;DHT22;4703;48.748;19.142;2023-08-21T02:03:31;20.80;99.90
9329;DHT22;4703;48.748;19.142;2023-08-21T02:05:58;20.70;99.90
9329;DHT22;4703;48.748;19.142;2023-08-21T02:08:30;20.80;99.90
9329;DHT22;4703;48.748;19.142;2023-08-21T02:10:59;20.80;99.90
9329;DHT22;4703;48.748;19.142;2023-08-21T02:13:26;20.80;99.90
9329;DHT22;4703;48.748;19.142;2023-08-21T02:15:53;20.80;99.90
9329;DHT22;4703;48.748;19.142;2023-08-21T02:18:20;20.80;99.90
9329;DHT22;4703;48.748;19.142;2023-08-21T02:20:47;20.80;99.90
9329;DHT22;4703;48.748;19.142;2023-08-21T02:23:16;20.70;99.90
9329;DHT22;4703;48.748;19.142;2023-08-21T02:25:43;20.70;99.90
9329;DHT22;4703;48.748;19.142;2023-08-21T02:28:10;20.70;99.90
9329;DHT22;4703;48.748;19.142;2023-08-21T02:30:40;20.70;99.90
9329;DHT22;4703;48.748;19.142;2023-08-21T02:33:07;20.70;99.90
9329;DHT22;4703;48.748;19.142;2023-08-21T02:35:36;20.70;99.90
9329;DHT22;4703;48.748;19.142;2023-08-21T02:38:03;20.60;99.90
9329;DHT22;4703;48.748;19.142;2023-08-21T02:40:30;20.60;99.90
9329;DHT22;4703;48.748;19.142;2023-08-21T02:42:58;20.60;99.90
9329;DHT22;4703;48.748;19.142;2023-08-21T02:45:25;20.60;99.90
9329;DHT22;4703;48.748;19.142;2023-08-21T02:47:52;20.60;99.90
9329;DHT22;4703;48.748;19.142;2023-08-21T02:50:19;20.50;99.90
9329;DHT22;4703;48.748;19.142;2023-08-21T02:52:46;20.50;99.90
9329;DHT22;4703;48.748;19.142;2023-08-21T02:55:13;20.50;99.90
9329;DHT22;4703;48.748;19.142;2023-08-21T02:57:40;20.50;99.90
9329;DHT22;4703;48.748;19.142;2023-08-21T03:00:08;20.50;99.90
9329;DHT22;4703;48.748;19.142;2023-08-21T03:02:35;20.40;99.90
9329;DHT22;4703;48.748;19.142;2023-08-21T03:05:04;20.40;99.90
9329;DHT22;4703;48.748;19.142;2023-08-21T03:07:31;20.40;99.90
9329;DHT22;4703;48.748;19.142;2023-08-21T03:09:58;20.30;99.90
9329;DHT22;4703;48.748;19.142;2023-08-21T03:12:25;20.30;99.90
9329;DHT22;4703;48.748;19.142;2023-08-21T03:14:52;20.30;99.90
9329;DHT22;4703;48.748;19.142;2023-08-21T03:17:19;20.40;99.90
9329;DHT22;4703;48.748;19.142;2023-08-21T03:19:46;20.30;99.90
9329;DHT22;4703;48.748;19.142;2023-08-21T03:22:13;20.20;99.90
9329;DHT22;4703;48.748;19.142;2023-08-21T03:24:40;20.30;99.90
9329;DHT22;4703;48.748;19.142;2023-08-21T03:27:07;20.20;99.90
9329;DHT22;4703;48.748;19.142;2023-08-21T03:29:34;20.20;99.90
9329;DHT22;4703;48.748;19.142;2023-08-21T03:32:01;20.20;99.90
9329;DHT22;4703;48.748;19.142;2023-08-21T03:34:28;20.10;99.90
9329;DHT22;4703;48.748;19.142;2023-08-21T03:36:55;20.10;99.90
9329;DHT22;4703;48.748;19.142;2023-08-21T03:39:22;20.10;99.90
9329;DHT22;4703;48.748;19.142;2023-08-21T03:41:49;20.00;99.90
9329;DHT22;4703;48.748;19.142;2023-08-21T03:44:16;20.00;99.90
9329;DHT22;4703;48.748;19.142;2023-08-21T03:46:43;20.00;99.90
9329;DHT22;4703;48.748;19.142;2023-08-21T03:49:10;20.00;99.90
9329;DHT22;4703;48.748;19.142;2023-08-21T03:51:37;20.00;99.90
9329;DHT22;4703;48.748;19.142;2023-08-21T03:54:05;20.00;99.90
9329;DHT22;4703;48.748;19.142;2023-08-21T03:56:32;19.90;99.90
9329;DHT22;4703;48.748;19.142;2023-08-21T03:58:58;19.90;99.90
9329;DHT22;4703;48.748;19.142;2023-08-21T04:01:25;19.80;99.90
9329;DHT22;4703;48.748;19.142;2023-08-21T04:03:53;19.80;99.90
9329;DHT22;4703;48.748;19.142;2023-08-21T04:06:20;19.80;99.90
9329;DHT22;4703;48.748;19.142;2023-08-21T04:08:47;19.80;99.90
9329;DHT22;4703;48.748;19.142;2023-08-21T04:11:15;19.80;99.90
9329;DHT22;4703;48.748;19.142;2023-08-21T04:13:42;19.80;99.90
9329;DHT22;4703;48.748;19.142;2023-08-21T04:16:09;19.80;99.90
9329;DHT22;4703;48.748;19.142;2023-08-21T04:18:37;19.80;99.90
9329;DHT22;4703;48.748;19.142;2023-08-21T04:21:08;19.70;99.90
9329;DHT22;4703;48.748;19.142;2023-08-21T04:23:36;19.70;99.90
9329;DHT22;4703;48.748;19.142;2023-08-21T04:26:04;19.70;99.90
9329;DHT22;4703;48.748;19.142;2023-08-21T04:28:32;19.70;99.90
9329;DHT22;4703;48.748;19.142;2023-08-21T04:31:07;19.80;99.90
9329;DHT22;4703;48.748;19.142;2023-08-21T04:33:34;19.80;99.90
9329;DHT22;4703;48.748;19.142;2023-08-21T04:36:22;19.70;99.90
9329;DHT22;4703;48.748;19.142;2023-08-21T04:38:49;19.70;99.90
9329;DHT22;4703;48.748;19.142;2023-08-21T04:41:16;19.70;99.90
9329;DHT22;4703;48.748;19.142;2023-08-21T04:43:43;19.70;99.90
9329;DHT22;4703;48.748;19.142;2023-08-21T04:46:10;19.70;99.90
9329;DHT22;4703;48.748;19.142;2023-08-21T04:48:37;19.70;99.90
9329;DHT22;4703;48.748;19.142;2023-08-21T04:51:04;19.70;99.90
9329;DHT22;4703;48.748;19.142;2023-08-21T04:53:31;19.80;99.90
9329;DHT22;4703;48.748;19.142;2023-08-21T04:55:59;19.70;99.90
9329;DHT22;4703;48.748;19.142;2023-08-21T04:58:26;19.80;99.90
9329;DHT22;4703;48.748;19.142;2023-08-21T05:00:53;19.80;99.90
9329;DHT22;4703;48.748;19.142;2023-08-21T05:03:21;21.50;99.90
9329;DHT22;4703;48.748;19.142;2023-08-21T05:05:52;19.90;99.90
9329;DHT22;4703;48.748;19.142;2023-08-21T05:08:24;19.90;99.90
9329;DHT22;4703;48.748;19.142;2023-08-21T05:10:58;19.90;99.90
9329;DHT22;4703;48.748;19.142;2023-08-21T05:13:26;19.90;99.90
9329;DHT22;4703;48.748;19.142;2023-08-21T05:15:56;19.90;99.90
9329;DHT22;4703;48.748;19.142;2023-08-21T05:18:25;19.90;99.90
9329;DHT22;4703;48.748;19.142;2023-08-21T05:20:54;19.90;99.90
9329;DHT22;4703;48.748;19.142;2023-08-21T05:23:22;20.00;99.90
9329;DHT22;4703;48.748;19.142;2023-08-21T05:25:49;20.00;99.90
9329;DHT22;4703;48.748;19.142;2023-08-21T05:28:16;20.10;99.90
9329;DHT22;4703;48.748;19.142;2023-08-21T05:30:46;20.10;99.90
9329;DHT22;4703;48.748;19.142;2023-08-21T05:33:14;20.20;99.90
9329;DHT22;4703;48.748;19.142;2023-08-21T05:35:41;20.30;99.90
9329;DHT22;4703;48.748;19.142;2023-08-21T05:38:08;20.30;99.90
9329;DHT22;4703;48.748;19.142;2023-08-21T05:40:36;20.30;99.90
9329;DHT22;4703;48.748;19.142;2023-08-21T05:43:03;20.30;99.90
9329;DHT22;4703;48.748;19.142;2023-08-21T05:45:30;20.40;99.90
9329;DHT22;4703;48.748;19.142;2023-08-21T05:47:57;20.40;99.90
9329;DHT22;4703;48.748;19.142;2023-08-21T05:50:24;20.40;99.90
9329;DHT22;4703;48.748;19.142;2023-08-21T05:52:51;20.50;99.90
9329;DHT22;4703;48.748;19.142;2023-08-21T05:55:18;20.60;99.90
9329;DHT22;4703;48.748;19.142;2023-08-21T05:57:45;20.60;99.90
9329;DHT22;4703;48.748;19.142;2023-08-21T06:00:12;20.70;99.90
9329;DHT22;4703;48.748;19.142;2023-08-21T06:02:40;20.70;99.90
9329;DHT22;4703;48.748;19.142;2023-08-21T06:05:09;20.70;99.90
9329;DHT22;4703;48.748;19.142;2023-08-21T06:07:36;20.80;99.90
9329;DHT22;4703;48.748;19.142;2023-08-21T06:10:03;20.80;99.90
9329;DHT22;4703;48.748;19.142;2023-08-21T06:12:31;20.90;99.90
9329;DHT22;4703;48.748;19.142;2023-08-21T06:14:58;20.90;99.90
9329;DHT22;4703;48.748;19.142;2023-08-21T06:17:27;21.00;99.90
9329;DHT22;4703;48.748;19.142;2023-08-21T06:19:54;21.00;99.90
9329;DHT22;4703;48.748;19.142;2023-08-21T06:22:22;21.00;99.90
9329;DHT22;4703;48.748;19.142;2023-08-21T06:24:49;21.00;99.90
9329;DHT22;4703;48.748;19.142;2023-08-21T06:27:16;21.00;99.90
9329;DHT22;4703;48.748;19.142;2023-08-21T06:29:43;21.10;99.90
9329;DHT22;4703;48.748;19.142;2023-08-21T06:32:10;21.10;99.90
9329;DHT22;4703;48.748;19.142;2023-08-21T06:34:37;21.20;99.90
9329;DHT22;4703;48.748;19.142;2023-08-21T06:37:04;21.20;99.90
9329;DHT22;4703;48.748;19.142;2023-08-21T06:39:32;21.30;99.90
9329;DHT22;4703;48.748;19.142;2023-08-21T06:41:59;21.30;99.90
9329;DHT22;4703;48.748;19.142;2023-08-21T06:44:27;21.40;99.90
9329;DHT22;4703;48.748;19.142;2023-08-21T06:46:54;21.40;99.90
9329;DHT22;4703;48.748;19.142;2023-08-21T06:49:21;21.40;99.90
9329;DHT22;4703;48.748;19.142;2023-08-21T06:51:48;21.40;99.90
9329;DHT22;4703;48.748;19.142;2023-08-21T06:54:15;21.50;99.90
9329;DHT22;4703;48.748;19.142;2023-08-21T06:56:42;21.50;99.90
9329;DHT22;4703;48.748;19.142;2023-08-21T06:59:09;21.60;99.90
9329;DHT22;4703;48.748;19.142;2023-08-21T07:01:36;21.60;99.90
9329;DHT22;4703;48.748;19.142;2023-08-21T07:04:04;21.70;99.90
9329;DHT22;4703;48.748;19.142;2023-08-21T07:06:31;21.70;99.90
9329;DHT22;4703;48.748;19.142;2023-08-21T07:08:58;21.80;99.90
9329;DHT22;4703;48.748;19.142;2023-08-21T07:11:25;21.80;99.90
9329;DHT22;4703;48.748;19.142;2023-08-21T07:13:52;21.90;99.90
9329;DHT22;4703;48.748;19.142;2023-08-21T07:16:19;21.90;99.90
9329;DHT22;4703;48.748;19.142;2023-08-21T07:18:46;22.00;99.90
9329;DHT22;4703;48.748;19.142;2023-08-21T07:21:13;22.10;99.90
9329;DHT22;4703;48.748;19.142;2023-08-21T07:23:58;22.10;99.90
9329;DHT22;4703;48.748;19.142;2023-08-21T07:26:25;22.20;99.90
9329;DHT22;4703;48.748;19.142;2023-08-21T07:28:52;22.20;99.90
9329;DHT22;4703;48.748;19.142;2023-08-21T07:31:20;22.30;99.90
9329;DHT22;4703;48.748;19.142;2023-08-21T07:33:47;22.30;99.90
9329;DHT22;4703;48.748;19.142;2023-08-21T07:36:14;22.40;99.90
9329;DHT22;4703;48.748;19.142;2023-08-21T07:38:44;22.40;99.90
9329;DHT22;4703;48.748;19.142;2023-08-21T07:41:12;22.50;99.90
9329;DHT22;4703;48.748;19.142;2023-08-21T07:43:41;22.50;99.90
9329;DHT22;4703;48.748;19.142;2023-08-21T07:46:10;22.60;99.90
9329;DHT22;4703;48.748;19.142;2023-08-21T07:48:45;22.60;99.90
9329;DHT22;4703;48.748;19.142;2023-08-21T07:51:12;22.70;99.90
9329;DHT22;4703;48.748;19.142;2023-08-21T07:53:40;22.70;99.90
9329;DHT22;4703;48.748;19.142;2023-08-21T07:56:07;22.80;99.90
9329;DHT22;4703;48.748;19.142;2023-08-21T07:58:34;22.80;99.90
9329;DHT22;4703;48.748;19.142;2023-08-21T08:01:01;22.90;99.90
9329;DHT22;4703;48.748;19.142;2023-08-21T08:03:28;22.90;99.90
9329;DHT22;4703;48.748;19.142;2023-08-21T08:05:55;23.00;99.90
9329;DHT22;4703;48.748;19.142;2023-08-21T08:08:22;23.00;99.90
9329;DHT22;4703;48.748;19.142;2023-08-21T08:10:49;23.10;99.90
9329;DHT22;4703;48.748;19.142;2023-08-21T08:13:17;23.20;99.90
9329;DHT22;4703;48.748;19.142;2023-08-21T08:15:44;23.20;99.90
9329;DHT22;4703;48.748;19.142;2023-08-21T08:18:12;23.30;99.90
9329;DHT22;4703;48.748;19.142;2023-08-21T08:20:39;23.40;99.90
9329;DHT22;4703;48.748;19.142;2023-08-21T08:23:07;23.40;99.90
9329;DHT22;4703;48.748;19.142;2023-08-21T08:25:34;23.40;99.90
9329;DHT22;4703;48.748;19.142;2023-08-21T08:28:01;23.50;99.90
9329;DHT22;4703;48.748;19.142;2023-08-21T08:30:28;23.60;99.90
9329;DHT22;4703;48.748;19.142;2023-08-21T08:32:55;23.60;99.90
9329;DHT22;4703;48.748;19.142;2023-08-21T08:35:22;23.70;99.90
9329;DHT22;4703;48.748;19.142;2023-08-21T08:37:49;23.80;99.90
9329;DHT22;4703;48.748;19.142;2023-08-21T08:40:16;23.80;99.90
9329;DHT22;4703;48.748;19.142;2023-08-21T08:42:43;23.90;99.90
9329;DHT22;4703;48.748;19.142;2023-08-21T08:45:13;24.00;99.90
9329;DHT22;4703;48.748;19.142;2023-08-21T08:47:41;24.10;99.90
9329;DHT22;4703;48.748;19.142;2023-08-21T08:50:08;24.10;99.90
9329;DHT22;4703;48.748;19.142;2023-08-21T08:52:38;24.10;99.90
9329;DHT22;4703;48.748;19.142;2023-08-21T08:55:07;24.20;99.90
9329;DHT22;4703;48.748;19.142;2023-08-21T08:57:34;24.30;99.90
9329;DHT22;4703;48.748;19.142;2023-08-21T09:00:05;24.40;99.90
9329;DHT22;4703;48.748;19.142;2023-08-21T09:02:33;24.50;99.90
9329;DHT22;4703;48.748;19.142;2023-08-21T09:05:00;24.50;99.90
9329;DHT22;4703;48.748;19.142;2023-08-21T09:07:28;24.60;99.90
9329;DHT22;4703;48.748;19.142;2023-08-21T09:09:55;24.70;99.90
9329;DHT22;4703;48.748;19.142;2023-08-21T09:12:22;24.80;99.90
9329;DHT22;4703;48.748;19.142;2023-08-21T09:14:49;24.90;99.90
9329;DHT22;4703;48.748;19.142;2023-08-21T09:17:16;24.90;99.90
9329;DHT22;4703;48.748;19.142;2023-08-21T09:19:43;25.00;99.90
9329;DHT22;4703;48.748;19.142;2023-08-21T09:22:18;25.00;99.90
9329;DHT22;4703;48.748;19.142;2023-08-21T09:25:05;25.10;99.90
9329;DHT22;4703;48.748;19.142;2023-08-21T09:27:35;25.20;99.90
9329;DHT22;4703;48.748;19.142;2023-08-21T09:30:09;25.20;99.90
9329;DHT22;4703;48.748;19.142;2023-08-21T09:32:55;25.40;99.90
9329;DHT22;4703;48.748;19.142;2023-08-21T09:35:33;25.40;99.90
9329;DHT22;4703;48.748;19.142;2023-08-21T09:38:00;25.50;99.90
9329;DHT22;4703;48.748;19.142;2023-08-21T09:40:27;25.60;99.90
9329;DHT22;4703;48.748;19.142;2023-08-21T09:42:56;25.60;99.90
9329;DHT22;4703;48.748;19.142;2023-08-21T09:45:24;25.60;99.90
9329;DHT22;4703;48.748;19.142;2023-08-21T09:47:52;25.70;99.90
9329;DHT22;4703;48.748;19.142;2023-08-21T09:50:20;25.70;99.90
9329;DHT22;4703;48.748;19.142;2023-08-21T09:52:47;25.90;99.90
9329;DHT22;4703;48.748;19.142;2023-08-21T09:55:15;25.90;99.90
9329;DHT22;4703;48.748;19.142;2023-08-21T09:57:43;26.00;99.90
9329;DHT22;4703;48.748;19.142;2023-08-21T10:00:11;26.20;99.90
9329;DHT22;4703;48.748;19.142;2023-08-21T10:02:51;26.30;99.90
9329;DHT22;4703;48.748;19.142;2023-08-21T10:05:19;26.60;99.90
9329;DHT22;4703;48.748;19.142;2023-08-21T10:07:48;26.70;99.90
9329;DHT22;4703;48.748;19.142;2023-08-21T10:10:17;26.90;99.90
9329;DHT22;4703;48.748;19.142;2023-08-21T10:12:44;27.10;99.90
9329;DHT22;4703;48.748;19.142;2023-08-21T10:15:12;27.30;99.90
9329;DHT22;4703;48.748;19.142;2023-08-21T10:17:41;27.50;99.90
9329;DHT22;4703;48.748;19.142;2023-08-21T10:20:10;27.70;99.50
9329;DHT22;4703;48.748;19.142;2023-08-21T10:22:45;27.90;99.80
9329;DHT22;4703;48.748;19.142;2023-08-21T10:25:23;28.10;99.80
9329;DHT22;4703;48.748;19.142;2023-08-21T10:27:58;28.30;99.90
9329;DHT22;4703;48.748;19.142;2023-08-21T10:30:30;28.60;99.00
9329;DHT22;4703;48.748;19.142;2023-08-21T10:32:59;28.80;98.40
9329;DHT22;4703;48.748;19.142;2023-08-21T10:35:30;29.00;98.70
9329;DHT22;4703;48.748;19.142;2023-08-21T10:38:08;29.10;98.50
9329;DHT22;4703;48.748;19.142;2023-08-21T10:40:41;29.30;99.20
9329;DHT22;4703;48.748;19.142;2023-08-21T10:43:43;29.50;97.20
9329;DHT22;4703;48.748;19.142;2023-08-21T10:46:11;28.90;97.60
9329;DHT22;4703;48.748;19.142;2023-08-21T10:48:40;29.70;98.40
9329;DHT22;4703;48.748;19.142;2023-08-21T10:51:07;29.80;98.00
9329;DHT22;4703;48.748;19.142;2023-08-21T10:53:35;28.80;97.40
9329;DHT22;4703;48.748;19.142;2023-08-21T10:56:04;30.20;97.30
9329;DHT22;4703;48.748;19.142;2023-08-21T10:58:41;30.40;97.60
9329;DHT22;4703;48.748;19.142;2023-08-21T11:01:08;30.60;98.00
9329;DHT22;4703;48.748;19.142;2023-08-21T11:03:39;30.70;96.70
9329;DHT22;4703;48.748;19.142;2023-08-21T11:06:08;30.80;96.70
9329;DHT22;4703;48.748;19.142;2023-08-21T11:08:36;30.90;96.20
9329;DHT22;4703;48.748;19.142;2023-08-21T11:11:05;30.70;96.20
9329;DHT22;4703;48.748;19.142;2023-08-21T11:13:33;30.70;97.20
9329;DHT22;4703;48.748;19.142;2023-08-21T11:16:04;30.70;97.00
9329;DHT22;4703;48.748;19.142;2023-08-21T11:18:37;30.80;96.60
9329;DHT22;4703;48.748;19.142;2023-08-21T11:21:09;30.80;96.30
9329;DHT22;4703;48.748;19.142;2023-08-21T11:23:41;30.90;96.60
9329;DHT22;4703;48.748;19.142;2023-08-21T11:26:12;30.90;96.90
9329;DHT22;4703;48.748;19.142;2023-08-21T11:28:47;31.20;95.80
9329;DHT22;4703;48.748;19.142;2023-08-21T11:31:16;31.40;95.00
9329;DHT22;4703;48.748;19.142;2023-08-21T11:33:49;31.70;94.20
9329;DHT22;4703;48.748;19.142;2023-08-21T11:36:18;32.00;93.90
9329;DHT22;4703;48.748;19.142;2023-08-21T11:39:02;32.30;92.30
9329;DHT22;4703;48.748;19.142;2023-08-21T11:41:32;32.70;92.00
9329;DHT22;4703;48.748;19.142;2023-08-21T11:44:03;32.90;91.70
9329;DHT22;4703;48.748;19.142;2023-08-21T11:46:35;33.10;91.30
9329;DHT22;4703;48.748;19.142;2023-08-21T11:49:02;33.30;90.40
9329;DHT22;4703;48.748;19.142;2023-08-21T11:51:38;33.60;90.30
9329;DHT22;4703;48.748;19.142;2023-08-21T11:54:09;34.10;88.60
9329;DHT22;4703;48.748;19.142;2023-08-21T11:56:38;34.40;88.10
9329;DHT22;4703;48.748;19.142;2023-08-21T11:59:08;34.70;85.90
9329;DHT22;4703;48.748;19.142;2023-08-21T12:01:35;35.10;83.10
9329;DHT22;4703;48.748;19.142;2023-08-21T12:04:14;35.10;82.20
9329;DHT22;4703;48.748;19.142;2023-08-21T12:06:45;35.30;81.50
9329;DHT22;4703;48.748;19.142;2023-08-21T12:09:12;35.40;79.80
9329;DHT22;4703;48.748;19.142;2023-08-21T12:11:39;35.70;81.50
9329;DHT22;4703;48.748;19.142;2023-08-21T12:14:06;35.90;75.60
9329;DHT22;4703;48.748;19.142;2023-08-21T12:16:33;36.20;72.90
9329;DHT22;4703;48.748;19.142;2023-08-21T12:19:00;36.30;73.40
9329;DHT22;4703;48.748;19.142;2023-08-21T12:21:29;36.50;73.30
9329;DHT22;4703;48.748;19.142;2023-08-21T12:23:57;36.40;70.00
9329;DHT22;4703;48.748;19.142;2023-08-21T12:26:24;36.20;69.90
9329;DHT22;4703;48.748;19.142;2023-08-21T12:29:02;36.00;73.00
9329;DHT22;4703;48.748;19.142;2023-08-21T12:31:29;36.00;72.70
9329;DHT22;4703;48.748;19.142;2023-08-21T12:33:56;36.00;70.60
9329;DHT22;4703;48.748;19.142;2023-08-21T12:36:23;36.00;65.90
9329;DHT22;4703;48.748;19.142;2023-08-21T12:38:51;35.90;65.90
9329;DHT22;4703;48.748;19.142;2023-08-21T12:41:18;35.80;67.10
9329;DHT22;4703;48.748;19.142;2023-08-21T12:43:44;35.70;62.90
9329;DHT22;4703;48.748;19.142;2023-08-21T12:46:12;35.40;61.00
9329;DHT22;4703;48.748;19.142;2023-08-21T12:48:39;35.10;65.00
9329;DHT22;4703;48.748;19.142;2023-08-21T12:51:06;34.80;65.90
9329;DHT22;4703;48.748;19.142;2023-08-21T12:53:33;34.60;67.90
9329;DHT22;4703;48.748;19.142;2023-08-21T12:56:01;34.20;58.90
9329;DHT22;4703;48.748;19.142;2023-08-21T12:58:29;34.00;57.90
9329;DHT22;4703;48.748;19.142;2023-08-21T13:00:56;33.70;55.60
9329;DHT22;4703;48.748;19.142;2023-08-21T13:03:23;33.40;56.00
9329;DHT22;4703;48.748;19.142;2023-08-21T13:05:52;33.20;57.60
9329;DHT22;4703;48.748;19.142;2023-08-21T13:08:19;33.10;55.00
9329;DHT22;4703;48.748;19.142;2023-08-21T13:10:47;33.00;54.60
9329;DHT22;4703;48.748;19.142;2023-08-21T13:13:14;32.90;52.80
9329;DHT22;4703;48.748;19.142;2023-08-21T13:15:41;32.90;49.40
9329;DHT22;4703;48.748;19.142;2023-08-21T13:18:11;32.70;51.30
9329;DHT22;4703;48.748;19.142;2023-08-21T13:20:39;32.60;53.00
9329;DHT22;4703;48.748;19.142;2023-08-21T13:23:06;32.40;53.50
9329;DHT22;4703;48.748;19.142;2023-08-21T13:25:34;32.40;55.00
9329;DHT22;4703;48.748;19.142;2023-08-21T13:28:02;32.30;56.70
9329;DHT22;4703;48.748;19.142;2023-08-21T13:30:30;32.30;56.60
9329;DHT22;4703;48.748;19.142;2023-08-21T13:32:58;32.30;58.20
9329;DHT22;4703;48.748;19.142;2023-08-21T13:35:25;32.30;57.40
9329;DHT22;4703;48.748;19.142;2023-08-21T13:37:52;32.20;57.00
9329;DHT22;4703;48.748;19.142;2023-08-21T13:40:19;32.30;60.90
9329;DHT22;4703;48.748;19.142;2023-08-21T13:42:47;32.40;58.00
9329;DHT22;4703;48.748;19.142;2023-08-21T13:45:16;32.40;59.80
9329;DHT22;4703;48.748;19.142;2023-08-21T13:47:45;32.50;61.10
9329;DHT22;4703;48.748;19.142;2023-08-21T13:50:15;32.60;61.20
9329;DHT22;4703;48.748;19.142;2023-08-21T13:52:46;32.60;61.90
9329;DHT22;4703;48.748;19.142;2023-08-21T13:55:14;32.70;62.30
9329;DHT22;4703;48.748;19.142;2023-08-21T13:57:41;32.90;60.50
9329;DHT22;4703;48.748;19.142;2023-08-21T14:00:10;33.00;60.20
9329;DHT22;4703;48.748;19.142;2023-08-21T14:02:40;33.20;60.10
9329;DHT22;4703;48.748;19.142;2023-08-21T14:05:08;33.30;60.10
9329;DHT22;4703;48.748;19.142;2023-08-21T14:07:37;33.50;61.70
9329;DHT22;4703;48.748;19.142;2023-08-21T14:10:06;33.60;60.70
9329;DHT22;4703;48.748;19.142;2023-08-21T14:12:34;33.70;58.60
9329;DHT22;4703;48.748;19.142;2023-08-21T14:15:04;33.80;58.70
9329;DHT22;4703;48.748;19.142;2023-08-21T14:17:32;33.70;59.70
9329;DHT22;4703;48.748;19.142;2023-08-21T14:19:59;33.70;60.30
9329;DHT22;4703;48.748;19.142;2023-08-21T14:22:26;33.60;61.50
9329;DHT22;4703;48.748;19.142;2023-08-21T14:24:53;33.60;63.20
9329;DHT22;4703;48.748;19.142;2023-08-21T14:27:20;33.50;62.00
9329;DHT22;4703;48.748;19.142;2023-08-21T14:29:47;33.50;60.20
9329;DHT22;4703;48.748;19.142;2023-08-21T14:32:14;33.40;61.10
9329;DHT22;4703;48.748;19.142;2023-08-21T14:34:41;33.30;60.80
9329;DHT22;4703;48.748;19.142;2023-08-21T14:37:08;33.20;60.40
9329;DHT22;4703;48.748;19.142;2023-08-21T14:39:37;33.20;62.40
9329;DHT22;4703;48.748;19.142;2023-08-21T14:42:04;33.10;63.50
9329;DHT22;4703;48.748;19.142;2023-08-21T14:44:31;33.00;65.80
9329;DHT22;4703;48.748;19.142;2023-08-21T14:46:58;32.90;65.80
9329;DHT22;4703;48.748;19.142;2023-08-21T14:49:29;32.70;66.60
9329;DHT22;4703;48.748;19.142;2023-08-21T14:51:56;32.70;70.10
9329;DHT22;4703;48.748;19.142;2023-08-21T14:54:23;32.70;71.60
9329;DHT22;4703;48.748;19.142;2023-08-21T14:56:50;32.70;69.30
9329;DHT22;4703;48.748;19.142;2023-08-21T14:59:17;32.70;70.90
9329;DHT22;4703;48.748;19.142;2023-08-21T15:01:44;32.80;70.20
9329;DHT22;4703;48.748;19.142;2023-08-21T15:04:11;32.90;71.80
9329;DHT22;4703;48.748;19.142;2023-08-21T15:06:39;33.10;73.60
9329;DHT22;4703;48.748;19.142;2023-08-21T15:09:06;33.20;74.20
9329;DHT22;4703;48.748;19.142;2023-08-21T15:11:34;33.30;72.70
9329;DHT22;4703;48.748;19.142;2023-08-21T15:14:02;33.40;71.00
9329;DHT22;4703;48.748;19.142;2023-08-21T15:16:30;33.60;70.80
9329;DHT22;4703;48.748;19.142;2023-08-21T15:18:57;33.90;72.90
9329;DHT22;4703;48.748;19.142;2023-08-21T15:21:25;34.40;72.00
9329;DHT22;4703;48.748;19.142;2023-08-21T15:23:53;35.00;72.20
9329;DHT22;4703;48.748;19.142;2023-08-21T15:26:20;35.40;68.10
9329;DHT22;4703;48.748;19.142;2023-08-21T15:28:48;35.70;67.70
9329;DHT22;4703;48.748;19.142;2023-08-21T15:31:19;36.20;68.60
9329;DHT22;4703;48.748;19.142;2023-08-21T15:33:46;36.60;68.00
9329;DHT22;4703;48.748;19.142;2023-08-21T15:36:16;37.10;64.30
9329;DHT22;4703;48.748;19.142;2023-08-21T15:38:43;37.20;61.30
9329;DHT22;4703;48.748;19.142;2023-08-21T15:41:10;37.40;62.80
9329;DHT22;4703;48.748;19.142;2023-08-21T15:43:37;37.70;63.40
9329;DHT22;4703;48.748;19.142;2023-08-21T15:46:04;37.80;62.70
9329;DHT22;4703;48.748;19.142;2023-08-21T15:48:32;37.60;61.80
9329;DHT22;4703;48.748;19.142;2023-08-21T15:51:01;37.50;60.40
9329;DHT22;4703;48.748;19.142;2023-08-21T15:53:29;37.30;62.60
9329;DHT22;4703;48.748;19.142;2023-08-21T15:55:56;37.20;61.30